DAK weather

Dakhla Airport
New Valley Governorate, Egypt

Public forecast

Using degrees Celsius for public forecast. Weather courtesy of forecast.io.

Closest aviation weather report (METAR) to Dakhla Airport

Closest report is Assiut International Airport, 146.1 nm (270.5 km) NE. Retrieved 2020/05/29 05:00 UTC (1 hour ago):

HEAT 290500Z 35007KT CAVOK 21/13 Q1019 NOSIG

Closest aviation forecast (TAF) to Dakhla Airport

Forecast is more than 12 hours old.

Closest forecast is Assiut International Airport, 146.1 nm (270.5 km) NE. Retrieved 2020/05/28 18:00 UTC (12 hours ago):

TAF HEAT 281700Z 2818/2924 33014KT CAVOK